sensor_id;sensor_type;location;lat;lon;timestamp;P1;durP1;ratioP1;P2;durP2;ratioP2
74528;SDS011;63009;52.584;5.932;2023-02-18T00:02:03;19.43;;;6.70;;
74528;SDS011;63009;52.584;5.932;2023-02-18T00:04:29;20.48;;;8.68;;
74528;SDS011;63009;52.584;5.932;2023-02-18T00:06:54;14.63;;;7.55;;
74528;SDS011;63009;52.584;5.932;2023-02-18T00:09:19;24.93;;;9.23;;
74528;SDS011;63009;52.584;5.932;2023-02-18T00:11:45;17.70;;;7.40;;
74528;SDS011;63009;52.584;5.932;2023-02-18T00:14:11;19.63;;;7.80;;
74528;SDS011;63009;52.584;5.932;2023-02-18T00:19:05;18.90;;;7.15;;
74528;SDS011;63009;52.584;5.932;2023-02-18T00:21:32;20.77;;;7.75;;
74528;SDS011;63009;52.584;5.932;2023-02-18T00:23:58;16.33;;;6.88;;
74528;SDS011;63009;52.584;5.932;2023-02-18T00:26:24;18.75;;;7.05;;
74528;SDS011;63009;52.584;5.932;2023-02-18T00:28:49;19.27;;;7.32;;
74528;SDS011;63009;52.584;5.932;2023-02-18T00:31:19;16.30;;;6.72;;
74528;SDS011;63009;52.584;5.932;2023-02-18T00:33:49;17.35;;;7.07;;
74528;SDS011;63009;52.584;5.932;2023-02-18T00:36:16;16.70;;;6.73;;
74528;SDS011;63009;52.584;5.932;2023-02-18T00:38:44;16.27;;;5.82;;
74528;SDS011;63009;52.584;5.932;2023-02-18T00:41:10;17.42;;;5.85;;
74528;SDS011;63009;52.584;5.932;2023-02-18T00:43:36;18.07;;;5.77;;
74528;SDS011;63009;52.584;5.932;2023-02-18T00:46:01;15.40;;;4.53;;
74528;SDS011;63009;52.584;5.932;2023-02-18T00:48:26;14.38;;;5.13;;
74528;SDS011;63009;52.584;5.932;2023-02-18T00:50:52;12.73;;;4.68;;
74528;SDS011;63009;52.584;5.932;2023-02-18T00:53:17;16.20;;;4.57;;
74528;SDS011;63009;52.584;5.932;2023-02-18T00:55:43;17.20;;;4.23;;
74528;SDS011;63009;52.584;5.932;2023-02-18T00:58:11;18.13;;;4.80;;
74528;SDS011;63009;52.584;5.932;2023-02-18T01:00:37;15.90;;;3.70;;
74528;SDS011;63009;52.584;5.932;2023-02-18T01:03:02;15.20;;;4.20;;
74528;SDS011;63009;52.584;5.932;2023-02-18T01:05:30;13.40;;;4.30;;
74528;SDS011;63009;52.584;5.932;2023-02-18T01:07:55;15.00;;;4.00;;
74528;SDS011;63009;52.584;5.932;2023-02-18T01:10:21;15.70;;;3.83;;
74528;SDS011;63009;52.584;5.932;2023-02-18T01:12:46;15.48;;;4.95;;
74528;SDS011;63009;52.584;5.932;2023-02-18T01:15:13;13.67;;;3.83;;
74528;SDS011;63009;52.584;5.932;2023-02-18T01:17:40;15.40;;;5.55;;
74528;SDS011;63009;52.584;5.932;2023-02-18T01:20:05;11.30;;;4.55;;
74528;SDS011;63009;52.584;5.932;2023-02-18T01:22:31;14.18;;;4.05;;
74528;SDS011;63009;52.584;5.932;2023-02-18T01:24:57;20.50;;;4.67;;
74528;SDS011;63009;52.584;5.932;2023-02-18T01:27:22;15.07;;;4.87;;
74528;SDS011;63009;52.584;5.932;2023-02-18T01:29:47;17.03;;;5.07;;
74528;SDS011;63009;52.584;5.932;2023-02-18T01:32:12;17.83;;;5.87;;
74528;SDS011;63009;52.584;5.932;2023-02-18T01:34:38;17.57;;;6.53;;
74528;SDS011;63009;52.584;5.932;2023-02-18T01:37:03;17.67;;;5.60;;
74528;SDS011;63009;52.584;5.932;2023-02-18T01:39:28;13.37;;;5.77;;
74528;SDS011;63009;52.584;5.932;2023-02-18T01:41:53;21.27;;;7.77;;
74528;SDS011;63009;52.584;5.932;2023-02-18T01:44:23;21.07;;;6.50;;
74528;SDS011;63009;52.584;5.932;2023-02-18T01:46:50;18.02;;;6.43;;
74528;SDS011;63009;52.584;5.932;2023-02-18T01:49:29;20.15;;;6.65;;
74528;SDS011;63009;52.584;5.932;2023-02-18T01:51:59;19.02;;;6.78;;
74528;SDS011;63009;52.584;5.932;2023-02-18T01:54:30;20.05;;;7.88;;
74528;SDS011;63009;52.584;5.932;2023-02-18T02:02:31;24.20;;;8.65;;
74528;SDS011;63009;52.584;5.932;2023-02-18T02:05:01;25.38;;;9.73;;
74528;SDS011;63009;52.584;5.932;2023-02-18T02:07:27;27.23;;;11.55;;
74528;SDS011;63009;52.584;5.932;2023-02-18T02:09:54;23.08;;;11.25;;
74528;SDS011;63009;52.584;5.932;2023-02-18T02:20:46;31.17;;;12.68;;
74528;SDS011;63009;52.584;5.932;2023-02-18T02:28:51;34.40;;;15.48;;
74528;SDS011;63009;52.584;5.932;2023-02-18T02:31:31;33.72;;;13.80;;
74528;SDS011;63009;52.584;5.932;2023-02-18T02:39:33;31.75;;;14.02;;
74528;SDS011;63009;52.584;5.932;2023-02-18T02:44:56;41.97;;;16.60;;
74528;SDS011;63009;52.584;5.932;2023-02-18T02:47:32;32.35;;;14.25;;
74528;SDS011;63009;52.584;5.932;2023-02-18T02:50:17;34.13;;;15.70;;
74528;SDS011;63009;52.584;5.932;2023-02-18T02:52:51;33.10;;;15.07;;
74528;SDS011;63009;52.584;5.932;2023-02-18T02:55:21;42.40;;;15.90;;
74528;SDS011;63009;52.584;5.932;2023-02-18T02:57:53;35.78;;;16.45;;
74528;SDS011;63009;52.584;5.932;2023-02-18T03:00:21;44.08;;;16.42;;
74528;SDS011;63009;52.584;5.932;2023-02-18T03:19:09;42.13;;;18.63;;
74528;SDS011;63009;52.584;5.932;2023-02-18T03:21:43;39.22;;;15.98;;
74528;SDS011;63009;52.584;5.932;2023-02-18T03:27:13;33.22;;;16.33;;
74528;SDS011;63009;52.584;5.932;2023-02-18T03:29:44;36.88;;;17.35;;
74528;SDS011;63009;52.584;5.932;2023-02-18T03:32:13;44.05;;;19.20;;
74528;SDS011;63009;52.584;5.932;2023-02-18T03:34:43;43.08;;;18.45;;
74528;SDS011;63009;52.584;5.932;2023-02-18T03:37:12;42.63;;;17.38;;
74528;SDS011;63009;52.584;5.932;2023-02-18T03:39:40;39.33;;;15.93;;
74528;SDS011;63009;52.584;5.932;2023-02-18T03:42:08;39.40;;;17.15;;
74528;SDS011;63009;52.584;5.932;2023-02-18T03:44:33;40.95;;;17.48;;
74528;SDS011;63009;52.584;5.932;2023-02-18T03:46:58;43.40;;;19.38;;
74528;SDS011;63009;52.584;5.932;2023-02-18T03:49:24;45.10;;;19.10;;
74528;SDS011;63009;52.584;5.932;2023-02-18T03:51:49;47.90;;;19.77;;
74528;SDS011;63009;52.584;5.932;2023-02-18T03:54:14;50.53;;;19.70;;
74528;SDS011;63009;52.584;5.932;2023-02-18T03:56:40;53.90;;;20.75;;
74528;SDS011;63009;52.584;5.932;2023-02-18T03:59:06;52.50;;;21.45;;
74528;SDS011;63009;52.584;5.932;2023-02-18T04:01:31;58.88;;;21.70;;
74528;SDS011;63009;52.584;5.932;2023-02-18T04:03:57;59.28;;;20.77;;
74528;SDS011;63009;52.584;5.932;2023-02-18T04:06:22;62.15;;;21.92;;
74528;SDS011;63009;52.584;5.932;2023-02-18T04:08:48;59.08;;;21.50;;
74528;SDS011;63009;52.584;5.932;2023-02-18T04:11:13;64.07;;;23.60;;
74528;SDS011;63009;52.584;5.932;2023-02-18T04:13:39;57.53;;;20.70;;
74528;SDS011;63009;52.584;5.932;2023-02-18T04:16:04;59.92;;;20.58;;
74528;SDS011;63009;52.584;5.932;2023-02-18T04:18:30;60.60;;;21.88;;
74528;SDS011;63009;52.584;5.932;2023-02-18T04:20:55;52.13;;;20.23;;
74528;SDS011;63009;52.584;5.932;2023-02-18T04:23:20;55.97;;;20.27;;
74528;SDS011;63009;52.584;5.932;2023-02-18T04:25:46;57.88;;;19.85;;
74528;SDS011;63009;52.584;5.932;2023-02-18T04:28:12;55.97;;;20.00;;
74528;SDS011;63009;52.584;5.932;2023-02-18T04:30:39;58.63;;;19.60;;
74528;SDS011;63009;52.584;5.932;2023-02-18T04:33:04;53.72;;;21.25;;
74528;SDS011;63009;52.584;5.932;2023-02-18T04:35:30;55.37;;;18.73;;
74528;SDS011;63009;52.584;5.932;2023-02-18T04:37:55;56.20;;;20.03;;
74528;SDS011;63009;52.584;5.932;2023-02-18T04:40:20;56.30;;;20.67;;
74528;SDS011;63009;52.584;5.932;2023-02-18T04:42:45;51.00;;;21.23;;
74528;SDS011;63009;52.584;5.932;2023-02-18T04:45:11;54.77;;;20.03;;
74528;SDS011;63009;52.584;5.932;2023-02-18T04:47:36;51.05;;;18.65;;
74528;SDS011;63009;52.584;5.932;2023-02-18T04:50:01;45.80;;;18.00;;
74528;SDS011;63009;52.584;5.932;2023-02-18T04:52:27;46.13;;;17.58;;
74528;SDS011;63009;52.584;5.932;2023-02-18T04:54:52;47.15;;;19.17;;
74528;SDS011;63009;52.584;5.932;2023-02-18T04:57:18;41.53;;;14.63;;
74528;SDS011;63009;52.584;5.932;2023-02-18T04:59:43;39.63;;;15.37;;
74528;SDS011;63009;52.584;5.932;2023-02-18T05:02:08;37.13;;;13.43;;
74528;SDS011;63009;52.584;5.932;2023-02-18T05:04:33;36.97;;;13.57;;
74528;SDS011;63009;52.584;5.932;2023-02-18T05:06:59;34.50;;;13.53;;
74528;SDS011;63009;52.584;5.932;2023-02-18T05:09:24;34.70;;;13.60;;
74528;SDS011;63009;52.584;5.932;2023-02-18T05:11:49;33.87;;;11.90;;
74528;SDS011;63009;52.584;5.932;2023-02-18T05:14:15;30.75;;;12.50;;
74528;SDS011;63009;52.584;5.932;2023-02-18T05:16:40;31.15;;;11.50;;
74528;SDS011;63009;52.584;5.932;2023-02-18T05:19:06;28.40;;;11.83;;
74528;SDS011;63009;52.584;5.932;2023-02-18T05:21:31;26.77;;;10.90;;
74528;SDS011;63009;52.584;5.932;2023-02-18T05:23:57;25.30;;;9.55;;
74528;SDS011;63009;52.584;5.932;2023-02-18T05:26:23;27.65;;;9.73;;
74528;SDS011;63009;52.584;5.932;2023-02-18T05:28:48;23.07;;;9.00;;
74528;SDS011;63009;52.584;5.932;2023-02-18T05:31:14;21.42;;;8.52;;
74528;SDS011;63009;52.584;5.932;2023-02-18T05:33:39;23.20;;;9.80;;
74528;SDS011;63009;52.584;5.932;2023-02-18T05:36:05;18.38;;;7.88;;
74528;SDS011;63009;52.584;5.932;2023-02-18T05:38:30;20.98;;;8.57;;
74528;SDS011;63009;52.584;5.932;2023-02-18T05:40:55;19.60;;;7.80;;
74528;SDS011;63009;52.584;5.932;2023-02-18T05:43:21;21.67;;;7.10;;
74528;SDS011;63009;52.584;5.932;2023-02-18T05:45:46;19.15;;;8.77;;
74528;SDS011;63009;52.584;5.932;2023-02-18T05:48:11;22.53;;;8.30;;
74528;SDS011;63009;52.584;5.932;2023-02-18T05:50:37;19.50;;;7.23;;
74528;SDS011;63009;52.584;5.932;2023-02-18T05:53:02;17.25;;;6.85;;
74528;SDS011;63009;52.584;5.932;2023-02-18T05:55:27;17.83;;;7.97;;
74528;SDS011;63009;52.584;5.932;2023-02-18T05:57:53;15.27;;;5.33;;
74528;SDS011;63009;52.584;5.932;2023-02-18T06:00:18;14.90;;;5.67;;
74528;SDS011;63009;52.584;5.932;2023-02-18T06:02:43;17.00;;;6.35;;
74528;SDS011;63009;52.584;5.932;2023-02-18T06:05:09;14.97;;;6.20;;
74528;SDS011;63009;52.584;5.932;2023-02-18T06:07:34;16.10;;;6.63;;
74528;SDS011;63009;52.584;5.932;2023-02-18T06:10:00;16.40;;;7.22;;
74528;SDS011;63009;52.584;5.932;2023-02-18T06:12:26;15.73;;;7.10;;
74528;SDS011;63009;52.584;5.932;2023-02-18T06:14:52;17.98;;;8.02;;
74528;SDS011;63009;52.584;5.932;2023-02-18T06:17:17;16.60;;;7.97;;
74528;SDS011;63009;52.584;5.932;2023-02-18T06:19:43;18.85;;;8.20;;
74528;SDS011;63009;52.584;5.932;2023-02-18T06:22:09;16.73;;;7.82;;
74528;SDS011;63009;52.584;5.932;2023-02-18T06:24:35;16.67;;;6.97;;
74528;SDS011;63009;52.584;5.932;2023-02-18T06:27:01;17.52;;;9.60;;
74528;SDS011;63009;52.584;5.932;2023-02-18T06:29:26;20.83;;;8.98;;
74528;SDS011;63009;52.584;5.932;2023-02-18T06:31:54;17.80;;;8.43;;
74528;SDS011;63009;52.584;5.932;2023-02-18T06:34:19;20.13;;;8.80;;
74528;SDS011;63009;52.584;5.932;2023-02-18T06:36:44;20.37;;;9.87;;
74528;SDS011;63009;52.584;5.932;2023-02-18T06:39:09;20.13;;;8.97;;
74528;SDS011;63009;52.584;5.932;2023-02-18T06:41:35;18.58;;;8.68;;
74528;SDS011;63009;52.584;5.932;2023-02-18T06:44:00;15.88;;;7.35;;
74528;SDS011;63009;52.584;5.932;2023-02-18T06:46:25;17.00;;;7.87;;
74528;SDS011;63009;52.584;5.932;2023-02-18T06:48:51;15.38;;;7.20;;
74528;SDS011;63009;52.584;5.932;2023-02-18T06:51:16;20.93;;;7.63;;
74528;SDS011;63009;52.584;5.932;2023-02-18T06:53:43;20.40;;;7.70;;
74528;SDS011;63009;52.584;5.932;2023-02-18T06:56:09;18.40;;;7.82;;
74528;SDS011;63009;52.584;5.932;2023-02-18T06:58:34;17.58;;;6.82;;
74528;SDS011;63009;52.584;5.932;2023-02-18T07:00:59;16.63;;;7.47;;
74528;SDS011;63009;52.584;5.932;2023-02-18T07:03:25;15.77;;;7.53;;
74528;SDS011;63009;52.584;5.932;2023-02-18T07:05:50;19.17;;;6.70;;
74528;SDS011;63009;52.584;5.932;2023-02-18T07:08:16;19.63;;;7.50;;
74528;SDS011;63009;52.584;5.932;2023-02-18T07:10:41;16.02;;;6.53;;
74528;SDS011;63009;52.584;5.932;2023-02-18T07:13:12;18.02;;;6.57;;
74528;SDS011;63009;52.584;5.932;2023-02-18T07:15:38;13.13;;;5.53;;
74528;SDS011;63009;52.584;5.932;2023-02-18T07:18:03;14.00;;;5.13;;
74528;SDS011;63009;52.584;5.932;2023-02-18T07:20:29;15.32;;;5.57;;
74528;SDS011;63009;52.584;5.932;2023-02-18T07:22:54;15.07;;;5.28;;
74528;SDS011;63009;52.584;5.932;2023-02-18T07:25:19;14.23;;;5.33;;
74528;SDS011;63009;52.584;5.932;2023-02-18T07:27:45;14.55;;;5.80;;
74528;SDS011;63009;52.584;5.932;2023-02-18T07:30:10;13.52;;;5.00;;
74528;SDS011;63009;52.584;5.932;2023-02-18T07:32:36;14.70;;;5.80;;
74528;SDS011;63009;52.584;5.932;2023-02-18T07:35:02;13.40;;;6.03;;
74528;SDS011;63009;52.584;5.932;2023-02-18T07:37:28;15.18;;;4.70;;
74528;SDS011;63009;52.584;5.932;2023-02-18T07:39:53;16.10;;;5.40;;
74528;SDS011;63009;52.584;5.932;2023-02-18T07:42:18;11.70;;;5.23;;
74528;SDS011;63009;52.584;5.932;2023-02-18T07:44:44;16.70;;;5.45;;
74528;SDS011;63009;52.584;5.932;2023-02-18T07:47:09;14.93;;;4.73;;
74528;SDS011;63009;52.584;5.932;2023-02-18T07:49:38;15.07;;;5.13;;
74528;SDS011;63009;52.584;5.932;2023-02-18T07:52:03;12.73;;;4.77;;
74528;SDS011;63009;52.584;5.932;2023-02-18T07:54:29;18.13;;;5.85;;
74528;SDS011;63009;52.584;5.932;2023-02-18T07:56:54;12.03;;;4.10;;
74528;SDS011;63009;52.584;5.932;2023-02-18T07:59:19;12.40;;;5.03;;
74528;SDS011;63009;52.584;5.932;2023-02-18T08:01:45;13.38;;;5.03;;
74528;SDS011;63009;52.584;5.932;2023-02-18T08:04:10;13.43;;;4.95;;
74528;SDS011;63009;52.584;5.932;2023-02-18T08:06:40;13.88;;;3.97;;
74528;SDS011;63009;52.584;5.932;2023-02-18T08:09:10;12.05;;;3.83;;
74528;SDS011;63009;52.584;5.932;2023-02-18T08:11:36;11.50;;;4.00;;
74528;SDS011;63009;52.584;5.932;2023-02-18T08:14:01;14.77;;;5.00;;
74528;SDS011;63009;52.584;5.932;2023-02-18T08:16:26;15.75;;;4.85;;
74528;SDS011;63009;52.584;5.932;2023-02-18T08:18:52;10.77;;;3.60;;
74528;SDS011;63009;52.584;5.932;2023-02-18T08:21:18;10.52;;;4.47;;
74528;SDS011;63009;52.584;5.932;2023-02-18T08:23:45;11.15;;;3.75;;
74528;SDS011;63009;52.584;5.932;2023-02-18T08:26:11;13.77;;;4.07;;
74528;SDS011;63009;52.584;5.932;2023-02-18T08:28:37;13.57;;;3.75;;
74528;SDS011;63009;52.584;5.932;2023-02-18T08:31:02;12.47;;;4.30;;
74528;SDS011;63009;52.584;5.932;2023-02-18T08:33:28;11.13;;;3.65;;
74528;SDS011;63009;52.584;5.932;2023-02-18T08:35:54;11.25;;;3.38;;
74528;SDS011;63009;52.584;5.932;2023-02-18T08:38:20;13.02;;;3.42;;
74528;SDS011;63009;52.584;5.932;2023-02-18T08:40:46;11.73;;;3.75;;
74528;SDS011;63009;52.584;5.932;2023-02-18T08:43:12;15.32;;;3.95;;
74528;SDS011;63009;52.584;5.932;2023-02-18T08:45:38;10.85;;;3.10;;
74528;SDS011;63009;52.584;5.932;2023-02-18T08:48:04;13.10;;;3.50;;
74528;SDS011;63009;52.584;5.932;2023-02-18T08:50:31;11.50;;;3.15;;
74528;SDS011;63009;52.584;5.932;2023-02-18T08:52:57;10.23;;;2.55;;
74528;SDS011;63009;52.584;5.932;2023-02-18T08:55:27;9.43;;;3.00;;
74528;SDS011;63009;52.584;5.932;2023-02-18T08:57:56;10.68;;;2.72;;
74528;SDS011;63009;52.584;5.932;2023-02-18T09:00:21;10.82;;;2.70;;
74528;SDS011;63009;52.584;5.932;2023-02-18T09:02:47;9.95;;;2.20;;
74528;SDS011;63009;52.584;5.932;2023-02-18T09:05:12;10.65;;;2.47;;
74528;SDS011;63009;52.584;5.932;2023-02-18T09:07:38;11.90;;;2.75;;
74528;SDS011;63009;52.584;5.932;2023-02-18T09:10:04;11.93;;;2.45;;
74528;SDS011;63009;52.584;5.932;2023-02-18T09:12:30;12.45;;;2.70;;
74528;SDS011;63009;52.584;5.932;2023-02-18T09:14:56;11.93;;;2.53;;
74528;SDS011;63009;52.584;5.932;2023-02-18T09:17:21;9.35;;;2.38;;
74528;SDS011;63009;52.584;5.932;2023-02-18T09:19:47;11.57;;;2.63;;
74528;SDS011;63009;52.584;5.932;2023-02-18T09:22:12;8.67;;;2.40;;
74528;SDS011;63009;52.584;5.932;2023-02-18T09:24:38;8.93;;;1.77;;
74528;SDS011;63009;52.584;5.932;2023-02-18T09:27:05;12.80;;;2.40;;
74528;SDS011;63009;52.584;5.932;2023-02-18T09:29:31;12.88;;;2.10;;
74528;SDS011;63009;52.584;5.932;2023-02-18T09:32:00;11.93;;;2.13;;
74528;SDS011;63009;52.584;5.932;2023-02-18T09:34:26;8.52;;;1.88;;
74528;SDS011;63009;52.584;5.932;2023-02-18T09:36:52;9.77;;;1.65;;
74528;SDS011;63009;52.584;5.932;2023-02-18T09:39:17;11.03;;;1.97;;
74528;SDS011;63009;52.584;5.932;2023-02-18T09:41:47;12.23;;;2.00;;
74528;SDS011;63009;52.584;5.932;2023-02-18T09:49:24;8.50;;;1.48;;
74528;SDS011;63009;52.584;5.932;2023-02-18T09:51:52;9.13;;;2.45;;
74528;SDS011;63009;52.584;5.932;2023-02-18T09:54:19;11.50;;;1.95;;
74528;SDS011;63009;52.584;5.932;2023-02-18T09:56:45;13.07;;;2.10;;
74528;SDS011;63009;52.584;5.932;2023-02-18T09:59:14;10.82;;;2.00;;
74528;SDS011;63009;52.584;5.932;2023-02-18T10:01:42;13.07;;;2.30;;
74528;SDS011;63009;52.584;5.932;2023-02-18T10:04:12;8.10;;;2.03;;
74528;SDS011;63009;52.584;5.932;2023-02-18T10:06:42;13.65;;;2.45;;
74528;SDS011;63009;52.584;5.932;2023-02-18T10:09:28;9.82;;;2.45;;
74528;SDS011;63009;52.584;5.932;2023-02-18T10:12:10;13.02;;;2.47;;
74528;SDS011;63009;52.584;5.932;2023-02-18T10:14:39;10.60;;;2.42;;
74528;SDS011;63009;52.584;5.932;2023-02-18T10:17:04;10.40;;;2.33;;
74528;SDS011;63009;52.584;5.932;2023-02-18T10:19:32;15.30;;;2.15;;
74528;SDS011;63009;52.584;5.932;2023-02-18T10:22:02;10.02;;;2.70;;
74528;SDS011;63009;52.584;5.932;2023-02-18T10:27:12;11.50;;;1.95;;
74528;SDS011;63009;52.584;5.932;2023-02-18T10:29:43;13.73;;;3.08;;
74528;SDS011;63009;52.584;5.932;2023-02-18T10:32:22;12.88;;;2.25;;
74528;SDS011;63009;52.584;5.932;2023-02-18T10:43:13;10.43;;;3.45;;
74528;SDS011;63009;52.584;5.932;2023-02-18T10:45:53;8.82;;;2.25;;
74528;SDS011;63009;52.584;5.932;2023-02-18T10:51:30;12.75;;;2.47;;
74528;SDS011;63009;52.584;5.932;2023-02-18T10:53:58;9.88;;;1.92;;
74528;SDS011;63009;52.584;5.932;2023-02-18T10:56:38;10.43;;;3.05;;
74528;SDS011;63009;52.584;5.932;2023-02-18T10:59:12;13.45;;;2.88;;
74528;SDS011;63009;52.584;5.932;2023-02-18T11:01:38;16.85;;;2.40;;
74528;SDS011;63009;52.584;5.932;2023-02-18T11:04:18;23.10;;;3.10;;
74528;SDS011;63009;52.584;5.932;2023-02-18T11:06:48;14.55;;;2.47;;
74528;SDS011;63009;52.584;5.932;2023-02-18T11:12:03;14.10;;;2.92;;
74528;SDS011;63009;52.584;5.932;2023-02-18T11:14:39;11.63;;;2.47;;
74528;SDS011;63009;52.584;5.932;2023-02-18T11:17:14;16.75;;;2.60;;
74528;SDS011;63009;52.584;5.932;2023-02-18T11:19:42;11.60;;;2.60;;
74528;SDS011;63009;52.584;5.932;2023-02-18T11:22:23;9.80;;;2.33;;
74528;SDS011;63009;52.584;5.932;2023-02-18T11:24:56;9.02;;;3.03;;
74528;SDS011;63009;52.584;5.932;2023-02-18T11:27:25;10.95;;;2.30;;
74528;SDS011;63009;52.584;5.932;2023-02-18T11:29:55;12.43;;;3.00;;
74528;SDS011;63009;52.584;5.932;2023-02-18T11:32:28;15.18;;;3.20;;
74528;SDS011;63009;52.584;5.932;2023-02-18T11:34:57;13.40;;;2.58;;
74528;SDS011;63009;52.584;5.932;2023-02-18T11:37:23;11.70;;;2.50;;
74528;SDS011;63009;52.584;5.932;2023-02-18T11:39:50;8.32;;;2.75;;
74528;SDS011;63009;52.584;5.932;2023-02-18T11:42:19;11.40;;;2.17;;
74528;SDS011;63009;52.584;5.932;2023-02-18T11:44:48;9.52;;;2.40;;
74528;SDS011;63009;52.584;5.932;2023-02-18T11:49:42;9.53;;;2.13;;
74528;SDS011;63009;52.584;5.932;2023-02-18T11:52:16;9.05;;;1.90;;
74528;SDS011;63009;52.584;5.932;2023-02-18T11:57:31;9.73;;;2.42;;
74528;SDS011;63009;52.584;5.932;2023-02-18T11:59:59;10.20;;;1.77;;
74528;SDS011;63009;52.584;5.932;2023-02-18T12:02:33;13.00;;;2.97;;
74528;SDS011;63009;52.584;5.932;2023-02-18T12:08:04;11.90;;;2.20;;
74528;SDS011;63009;52.584;5.932;2023-02-18T12:10:37;7.72;;;1.88;;
74528;SDS011;63009;52.584;5.932;2023-02-18T12:13:09;8.93;;;1.90;;
74528;SDS011;63009;52.584;5.932;2023-02-18T12:18:29;10.20;;;1.65;;
74528;SDS011;63009;52.584;5.932;2023-02-18T12:21:23;13.75;;;3.95;;
74528;SDS011;63009;52.584;5.932;2023-02-18T12:26:44;9.57;;;1.90;;
74528;SDS011;63009;52.584;5.932;2023-02-18T12:37:39;12.48;;;2.88;;
74528;SDS011;63009;52.584;5.932;2023-02-18T12:57:21;12.05;;;2.20;;
74528;SDS011;63009;52.584;5.932;2023-02-18T13:05:11;8.45;;;2.40;;
74528;SDS011;63009;52.584;5.932;2023-02-18T13:08:24;9.15;;;2.90;;
74528;SDS011;63009;52.584;5.932;2023-02-18T13:11:19;8.95;;;1.98;;
74528;SDS011;63009;52.584;5.932;2023-02-18T13:14:10;9.52;;;2.15;;
74528;SDS011;63009;52.584;5.932;2023-02-18T13:16:40;8.68;;;2.33;;
74528;SDS011;63009;52.584;5.932;2023-02-18T13:21:40;10.23;;;2.20;;
74528;SDS011;63009;52.584;5.932;2023-02-18T13:24:12;8.85;;;1.70;;
74528;SDS011;63009;52.584;5.932;2023-02-18T13:26:41;9.05;;;1.85;;
74528;SDS011;63009;52.584;5.932;2023-02-18T13:40:22;14.23;;;2.78;;
74528;SDS011;63009;52.584;5.932;2023-02-18T13:42:53;9.52;;;1.80;;
74528;SDS011;63009;52.584;5.932;2023-02-18T13:45:39;8.93;;;1.80;;
74528;SDS011;63009;52.584;5.932;2023-02-18T13:48:05;10.47;;;2.30;;
74528;SDS011;63009;52.584;5.932;2023-02-18T13:50:47;10.70;;;2.20;;
74528;SDS011;63009;52.584;5.932;2023-02-18T13:53:14;12.05;;;2.05;;
74528;SDS011;63009;52.584;5.932;2023-02-18T13:55:52;10.85;;;2.60;;
74528;SDS011;63009;52.584;5.932;2023-02-18T13:58:31;12.02;;;2.42;;
74528;SDS011;63009;52.584;5.932;2023-02-18T14:04:01;12.95;;;2.08;;
74528;SDS011;63009;52.584;5.932;2023-02-18T14:06:33;8.27;;;2.17;;
74528;SDS011;63009;52.584;5.932;2023-02-18T14:09:04;13.32;;;2.63;;
74528;SDS011;63009;52.584;5.932;2023-02-18T14:11:39;10.07;;;2.67;;
74528;SDS011;63009;52.584;5.932;2023-02-18T14:19:38;12.18;;;2.03;;
74528;SDS011;63009;52.584;5.932;2023-02-18T14:24:48;10.85;;;3.15;;
74528;SDS011;63009;52.584;5.932;2023-02-18T14:27:24;8.23;;;2.13;;
74528;SDS011;63009;52.584;5.932;2023-02-18T14:29:50;14.27;;;2.35;;
74528;SDS011;63009;52.584;5.932;2023-02-18T14:32:16;8.48;;;2.20;;
74528;SDS011;63009;52.584;5.932;2023-02-18T14:37:39;9.50;;;2.83;;
74528;SDS011;63009;52.584;5.932;2023-02-18T14:40:32;10.80;;;2.47;;
74528;SDS011;63009;52.584;5.932;2023-02-18T14:43:30;9.82;;;2.70;;
74528;SDS011;63009;52.584;5.932;2023-02-18T14:46:06;14.48;;;3.28;;
74528;SDS011;63009;52.584;5.932;2023-02-18T14:51:06;8.68;;;2.58;;
74528;SDS011;63009;52.584;5.932;2023-02-18T14:53:33;9.07;;;2.00;;
74528;SDS011;63009;52.584;5.932;2023-02-18T14:56:04;13.52;;;2.72;;
74528;SDS011;63009;52.584;5.932;2023-02-18T14:58:36;9.18;;;2.28;;
74528;SDS011;63009;52.584;5.932;2023-02-18T15:01:06;10.07;;;2.22;;
74528;SDS011;63009;52.584;5.932;2023-02-18T15:03:40;11.68;;;2.47;;
74528;SDS011;63009;52.584;5.932;2023-02-18T15:06:20;14.13;;;3.13;;
74528;SDS011;63009;52.584;5.932;2023-02-18T15:08:54;10.98;;;2.15;;
74528;SDS011;63009;52.584;5.932;2023-02-18T15:11:20;12.20;;;2.87;;
74528;SDS011;63009;52.584;5.932;2023-02-18T15:13:47;11.27;;;2.55;;
74528;SDS011;63009;52.584;5.932;2023-02-18T15:16:29;8.00;;;1.95;;
74528;SDS011;63009;52.584;5.932;2023-02-18T15:19:01;8.13;;;1.80;;
74528;SDS011;63009;52.584;5.932;2023-02-18T15:21:30;11.73;;;2.45;;
74528;SDS011;63009;52.584;5.932;2023-02-18T15:24:17;9.57;;;2.13;;
74528;SDS011;63009;52.584;5.932;2023-02-18T15:26:48;15.80;;;2.17;;
74528;SDS011;63009;52.584;5.932;2023-02-18T15:29:20;11.95;;;1.70;;
74528;SDS011;63009;52.584;5.932;2023-02-18T15:31:48;11.30;;;3.47;;
74528;SDS011;63009;52.584;5.932;2023-02-18T15:34:28;9.48;;;1.80;;
74528;SDS011;63009;52.584;5.932;2023-02-18T15:36:55;8.15;;;2.30;;
74528;SDS011;63009;52.584;5.932;2023-02-18T15:39:22;12.57;;;2.10;;
74528;SDS011;63009;52.584;5.932;2023-02-18T15:41:55;11.77;;;1.95;;
74528;SDS011;63009;52.584;5.932;2023-02-18T15:44:27;8.15;;;2.20;;
74528;SDS011;63009;52.584;5.932;2023-02-18T15:46:54;6.88;;;1.55;;
74528;SDS011;63009;52.584;5.932;2023-02-18T15:49:23;10.43;;;2.65;;
74528;SDS011;63009;52.584;5.932;2023-02-18T15:51:49;8.60;;;2.17;;
74528;SDS011;63009;52.584;5.932;2023-02-18T15:54:20;7.10;;;1.92;;
74528;SDS011;63009;52.584;5.932;2023-02-18T15:56:51;10.27;;;1.90;;
74528;SDS011;63009;52.584;5.932;2023-02-18T16:04:32;8.75;;;2.25;;
74528;SDS011;63009;52.584;5.932;2023-02-18T16:07:02;12.82;;;2.55;;
74528;SDS011;63009;52.584;5.932;2023-02-18T16:09:41;11.10;;;2.17;;
74528;SDS011;63009;52.584;5.932;2023-02-18T16:12:12;14.43;;;2.47;;
74528;SDS011;63009;52.584;5.932;2023-02-18T16:14:46;13.90;;;2.78;;
74528;SDS011;63009;52.584;5.932;2023-02-18T16:17:17;13.10;;;2.40;;
74528;SDS011;63009;52.584;5.932;2023-02-18T16:19:46;9.93;;;1.90;;
74528;SDS011;63009;52.584;5.932;2023-02-18T16:22:25;11.25;;;2.92;;
74528;SDS011;63009;52.584;5.932;2023-02-18T16:25:13;12.05;;;1.95;;
74528;SDS011;63009;52.584;5.932;2023-02-18T16:27:46;17.98;;;2.70;;
74528;SDS011;63009;52.584;5.932;2023-02-18T16:30:15;13.68;;;2.30;;
74528;SDS011;63009;52.584;5.932;2023-02-18T16:32:42;9.43;;;2.00;;
74528;SDS011;63009;52.584;5.932;2023-02-18T16:35:08;9.23;;;1.60;;
74528;SDS011;63009;52.584;5.932;2023-02-18T16:37:34;17.52;;;3.00;;
74528;SDS011;63009;52.584;5.932;2023-02-18T16:40:02;9.13;;;2.70;;
74528;SDS011;63009;52.584;5.932;2023-02-18T16:42:28;10.40;;;2.25;;
74528;SDS011;63009;52.584;5.932;2023-02-18T16:44:54;9.65;;;2.05;;
74528;SDS011;63009;52.584;5.932;2023-02-18T16:47:19;11.97;;;2.20;;
74528;SDS011;63009;52.584;5.932;2023-02-18T16:49:45;11.65;;;2.60;;
74528;SDS011;63009;52.584;5.932;2023-02-18T16:52:14;10.48;;;2.08;;
74528;SDS011;63009;52.584;5.932;2023-02-18T16:54:42;10.20;;;3.25;;
74528;SDS011;63009;52.584;5.932;2023-02-18T16:57:08;9.07;;;2.28;;
74528;SDS011;63009;52.584;5.932;2023-02-18T16:59:35;11.52;;;2.33;;
74528;SDS011;63009;52.584;5.932;2023-02-18T17:02:00;8.47;;;2.10;;
74528;SDS011;63009;52.584;5.932;2023-02-18T17:04:25;9.68;;;2.38;;
74528;SDS011;63009;52.584;5.932;2023-02-18T17:06:51;11.20;;;2.50;;
74528;SDS011;63009;52.584;5.932;2023-02-18T17:09:17;8.57;;;2.47;;
74528;SDS011;63009;52.584;5.932;2023-02-18T17:11:45;10.27;;;2.45;;
74528;SDS011;63009;52.584;5.932;2023-02-18T17:14:12;14.18;;;2.58;;